Main page
METAR-TAF:

METAR-TAF

Airports :

Gloucestershire Airport

Gloucester, England

latitude: 51-54N, longitude: 002-10W, elevation: 29 m

Current weather observation

The report was made 33 minutes ago, at 16:20 UTC
Calm wind
Temperature 12°C
Humidity 94%
Pressure 1009 hPa
Visibility: 9000 m

METAR: EGBJ 231620Z 00000KT 9000 NSC 12/11 Q1009

Time: 17:53 (16:53 UTC)

Forecast

The report was made 2 hours and 58 minutes ago, at 13:55 UTC
Forecast valid from 23 at 15 UTC to 23 at 19 UTC
Wind 3 kt from the West/Northwest
Visibility 10 km or more
Few clouds at a height of 2500 ft
Probability 30% :
Temporary
from 23 at 15 UTC to 23 at 19 UTC
Visibility: 5000 m
haze

TAF: EGBJ 231355Z 2315/2319 30003KT 9999 FEW025 PROB30 TEMPO 2315/2319 5000 HZ

Weather observations and forecasts of more than 4000 airports (METAR and TAF reports).

The available stations are represented by yellow and red dots on the map.

Hover mouse over dot to see the name of the station.

Then click to see weather observations and forecasts.

To change the map : click on the green buttons with a black cross to zoom in, on the green button with a dash to zoom out, or on the green arrows for adjacent maps.


METAR-TAF: